sensor_id;sensor_type;location;lat;lon;timestamp;temperature;humidity
63313;DHT22;49442;45.640;13.812;2023-02-28T00:46:54;21.40;71.20
63313;DHT22;49442;45.640;13.812;2023-02-28T00:49:21;21.40;71.40
63313;DHT22;49442;45.640;13.812;2023-02-28T00:51:46;21.40;71.90
63313;DHT22;49442;45.640;13.812;2023-02-28T00:54:12;21.40;71.00
63313;DHT22;49442;45.640;13.812;2023-02-28T00:56:38;21.40;71.40
63313;DHT22;49442;45.640;13.812;2023-02-28T00:59:03;21.30;71.20
63313;DHT22;49442;45.640;13.812;2023-02-28T01:01:29;21.30;71.30
63313;DHT22;49442;45.640;13.812;2023-02-28T01:03:55;21.30;70.90
63313;DHT22;49442;45.640;13.812;2023-02-28T01:06:20;21.30;71.10
63313;DHT22;49442;45.640;13.812;2023-02-28T01:08:46;21.30;71.40
63313;DHT22;49442;45.640;13.812;2023-02-28T01:11:14;21.30;71.30
63313;DHT22;49442;45.640;13.812;2023-02-28T01:13:41;21.30;71.30
63313;DHT22;49442;45.640;13.812;2023-02-28T01:16:07;21.30;71.30
63313;DHT22;49442;45.640;13.812;2023-02-28T01:18:33;21.20;71.00
63313;DHT22;49442;45.640;13.812;2023-02-28T01:21:03;21.20;71.00
63313;DHT22;49442;45.640;13.812;2023-02-28T01:23:29;21.20;71.20
63313;DHT22;49442;45.640;13.812;2023-02-28T01:25:55;21.20;71.20
63313;DHT22;49442;45.640;13.812;2023-02-28T01:28:21;21.20;71.30
63313;DHT22;49442;45.640;13.812;2023-02-28T01:30:50;21.20;71.40
63313;DHT22;49442;45.640;13.812;2023-02-28T01:33:16;21.20;72.20
63313;DHT22;49442;45.640;13.812;2023-02-28T01:35:42;21.20;71.30
63313;DHT22;49442;45.640;13.812;2023-02-28T01:38:07;21.10;71.10
63313;DHT22;49442;45.640;13.812;2023-02-28T01:40:33;21.10;71.30
63313;DHT22;49442;45.640;13.812;2023-02-28T01:42:59;21.10;71.30
63313;DHT22;49442;45.640;13.812;2023-02-28T01:45:30;21.10;71.50
63313;DHT22;49442;45.640;13.812;2023-02-28T01:48:00;21.10;71.40
63313;DHT22;49442;45.640;13.812;2023-02-28T01:50:31;21.00;71.30
63313;DHT22;49442;45.640;13.812;2023-02-28T01:53:02;21.00;71.30
63313;DHT22;49442;45.640;13.812;2023-02-28T01:55:30;21.00;71.50
63313;DHT22;49442;45.640;13.812;2023-02-28T01:57:59;21.00;71.40
63313;DHT22;49442;45.640;13.812;2023-02-28T02:00:27;21.00;71.20
63313;DHT22;49442;45.640;13.812;2023-02-28T02:02:57;21.00;71.30
63313;DHT22;49442;45.640;13.812;2023-02-28T02:05:25;20.90;71.20
63313;DHT22;49442;45.640;13.812;2023-02-28T02:07:54;20.90;71.40
63313;DHT22;49442;45.640;13.812;2023-02-28T02:10:48;20.90;71.20
63313;DHT22;49442;45.640;13.812;2023-02-28T02:18:57;20.90;71.50
63313;DHT22;49442;45.640;13.812;2023-02-28T02:21:57;20.90;71.40
63313;DHT22;49442;45.640;13.812;2023-02-28T02:30:12;20.80;71.50
63313;DHT22;49442;45.640;13.812;2023-02-28T02:41:17;20.80;71.40
63313;DHT22;49442;45.640;13.812;2023-02-28T02:46:39;20.70;71.50
63313;DHT22;49442;45.640;13.812;2023-02-28T02:49:15;20.70;71.70
63313;DHT22;49442;45.640;13.812;2023-02-28T02:51:42;20.70;71.40
63313;DHT22;49442;45.640;13.812;2023-02-28T02:54:13;20.70;71.70
63313;DHT22;49442;45.640;13.812;2023-02-28T02:56:43;20.70;72.30
63313;DHT22;49442;45.640;13.812;2023-02-28T02:59:13;20.70;71.70
63313;DHT22;49442;45.640;13.812;2023-02-28T03:01:40;20.70;71.60
63313;DHT22;49442;45.640;13.812;2023-02-28T03:04:12;20.60;71.60
63313;DHT22;49442;45.640;13.812;2023-02-28T03:06:39;20.70;71.80
63313;DHT22;49442;45.640;13.812;2023-02-28T03:09:05;20.60;71.70
63313;DHT22;49442;45.640;13.812;2023-02-28T03:11:31;20.60;71.80
63313;DHT22;49442;45.640;13.812;2023-02-28T03:16:59;20.60;71.80
63313;DHT22;49442;45.640;13.812;2023-02-28T03:19:33;20.60;71.90
63313;DHT22;49442;45.640;13.812;2023-02-28T03:30:29;20.50;71.70
63313;DHT22;49442;45.640;13.812;2023-02-28T03:33:08;20.50;71.80
63313;DHT22;49442;45.640;13.812;2023-02-28T03:35:38;20.50;71.80
63313;DHT22;49442;45.640;13.812;2023-02-28T03:38:13;20.50;71.80
63313;DHT22;49442;45.640;13.812;2023-02-28T03:40:45;20.50;71.90
63313;DHT22;49442;45.640;13.812;2023-02-28T03:43:18;20.50;71.80
63313;DHT22;49442;45.640;13.812;2023-02-28T03:45:45;20.40;71.80
63313;DHT22;49442;45.640;13.812;2023-02-28T03:48:35;20.40;71.90
63313;DHT22;49442;45.640;13.812;2023-02-28T03:51:03;20.40;71.80
63313;DHT22;49442;45.640;13.812;2023-02-28T03:53:37;20.40;72.00
63313;DHT22;49442;45.640;13.812;2023-02-28T03:56:17;20.40;71.80
63313;DHT22;49442;45.640;13.812;2023-02-28T03:58:49;20.40;72.00
63313;DHT22;49442;45.640;13.812;2023-02-28T04:03:51;20.40;72.00
63313;DHT22;49442;45.640;13.812;2023-02-28T04:06:20;20.30;72.00
63313;DHT22;49442;45.640;13.812;2023-02-28T04:08:46;20.40;72.00
63313;DHT22;49442;45.640;13.812;2023-02-28T04:11:27;20.30;71.90
63313;DHT22;49442;45.640;13.812;2023-02-28T04:13:55;20.30;71.70
63313;DHT22;49442;45.640;13.812;2023-02-28T04:16:21;20.30;71.90
63313;DHT22;49442;45.640;13.812;2023-02-28T04:18:46;20.30;71.70
63313;DHT22;49442;45.640;13.812;2023-02-28T04:21:12;20.30;71.70
63313;DHT22;49442;45.640;13.812;2023-02-28T04:23:38;20.30;71.70
63313;DHT22;49442;45.640;13.812;2023-02-28T04:26:04;20.20;71.80
63313;DHT22;49442;45.640;13.812;2023-02-28T04:28:31;20.20;71.90
63313;DHT22;49442;45.640;13.812;2023-02-28T04:30:59;20.30;71.80
63313;DHT22;49442;45.640;13.812;2023-02-28T04:33:25;20.20;71.70
63313;DHT22;49442;45.640;13.812;2023-02-28T04:36:06;20.20;71.70
63313;DHT22;49442;45.640;13.812;2023-02-28T04:38:37;20.20;71.60
63313;DHT22;49442;45.640;13.812;2023-02-28T04:41:03;20.20;71.70
63313;DHT22;49442;45.640;13.812;2023-02-28T04:43:29;20.20;71.70
63313;DHT22;49442;45.640;13.812;2023-02-28T04:45:57;20.20;71.70
63313;DHT22;49442;45.640;13.812;2023-02-28T04:48:24;20.20;71.70
63313;DHT22;49442;45.640;13.812;2023-02-28T04:50:51;20.20;71.70
63313;DHT22;49442;45.640;13.812;2023-02-28T04:53:17;20.20;71.70
63313;DHT22;49442;45.640;13.812;2023-02-28T04:55:43;20.20;71.70
63313;DHT22;49442;45.640;13.812;2023-02-28T04:58:09;20.10;71.80
63313;DHT22;49442;45.640;13.812;2023-02-28T05:00:35;20.10;71.60
63313;DHT22;49442;45.640;13.812;2023-02-28T05:03:00;20.10;71.60
63313;DHT22;49442;45.640;13.812;2023-02-28T05:05:26;20.10;71.70
63313;DHT22;49442;45.640;13.812;2023-02-28T05:07:52;20.10;71.70
63313;DHT22;49442;45.640;13.812;2023-02-28T05:10:19;20.10;71.70
63313;DHT22;49442;45.640;13.812;2023-02-28T05:12:44;20.10;71.70
63313;DHT22;49442;45.640;13.812;2023-02-28T05:15:14;20.10;71.60
63313;DHT22;49442;45.640;13.812;2023-02-28T05:17:40;20.00;71.90
63313;DHT22;49442;45.640;13.812;2023-02-28T05:20:07;20.00;71.90
63313;DHT22;49442;45.640;13.812;2023-02-28T05:22:40;20.00;71.80
63313;DHT22;49442;45.640;13.812;2023-02-28T05:25:06;20.00;72.00
63313;DHT22;49442;45.640;13.812;2023-02-28T05:27:32;20.00;71.70
63313;DHT22;49442;45.640;13.812;2023-02-28T05:29:58;20.10;71.60
63313;DHT22;49442;45.640;13.812;2023-02-28T05:32:24;20.10;71.90
63313;DHT22;49442;45.640;13.812;2023-02-28T05:34:50;20.10;72.00
63313;DHT22;49442;45.640;13.812;2023-02-28T05:37:16;20.00;71.70
63313;DHT22;49442;45.640;13.812;2023-02-28T05:39:42;20.00;71.50
63313;DHT22;49442;45.640;13.812;2023-02-28T05:42:08;20.00;71.60
63313;DHT22;49442;45.640;13.812;2023-02-28T05:44:34;20.00;71.60
63313;DHT22;49442;45.640;13.812;2023-02-28T05:47:00;20.00;71.60
63313;DHT22;49442;45.640;13.812;2023-02-28T05:49:26;20.00;71.50
63313;DHT22;49442;45.640;13.812;2023-02-28T05:51:51;20.00;71.50
63313;DHT22;49442;45.640;13.812;2023-02-28T05:54:17;20.00;72.50
63313;DHT22;49442;45.640;13.812;2023-02-28T05:56:42;20.00;71.70
63313;DHT22;49442;45.640;13.812;2023-02-28T05:59:11;20.00;71.80
63313;DHT22;49442;45.640;13.812;2023-02-28T06:01:47;20.00;71.80
63313;DHT22;49442;45.640;13.812;2023-02-28T06:04:18;20.00;71.90
63313;DHT22;49442;45.640;13.812;2023-02-28T06:06:49;20.00;71.70
63313;DHT22;49442;45.640;13.812;2023-02-28T06:09:15;20.00;71.70
63313;DHT22;49442;45.640;13.812;2023-02-28T06:11:41;20.00;71.50
63313;DHT22;49442;45.640;13.812;2023-02-28T06:14:14;20.00;71.70
63313;DHT22;49442;45.640;13.812;2023-02-28T06:16:40;20.00;71.70
63313;DHT22;49442;45.640;13.812;2023-02-28T06:19:06;20.10;71.80
63313;DHT22;49442;45.640;13.812;2023-02-28T06:21:32;20.10;71.80
63313;DHT22;49442;45.640;13.812;2023-02-28T06:23:58;20.00;71.50
63313;DHT22;49442;45.640;13.812;2023-02-28T06:26:24;20.10;70.90
63313;DHT22;49442;45.640;13.812;2023-02-28T06:28:50;20.10;70.30
63313;DHT22;49442;45.640;13.812;2023-02-28T06:31:17;20.10;66.10
63313;DHT22;49442;45.640;13.812;2023-02-28T06:33:44;20.10;65.90
63313;DHT22;49442;45.640;13.812;2023-02-28T06:36:11;20.10;66.40
63313;DHT22;49442;45.640;13.812;2023-02-28T06:38:38;20.10;67.80
63313;DHT22;49442;45.640;13.812;2023-02-28T06:41:04;20.20;68.40
63313;DHT22;49442;45.640;13.812;2023-02-28T06:43:33;20.20;68.70
63313;DHT22;49442;45.640;13.812;2023-02-28T06:46:02;20.20;69.00
63313;DHT22;49442;45.640;13.812;2023-02-28T06:48:28;20.30;70.00
63313;DHT22;49442;45.640;13.812;2023-02-28T06:51:05;20.40;70.90
63313;DHT22;49442;45.640;13.812;2023-02-28T06:53:31;20.40;71.80
63313;DHT22;49442;45.640;13.812;2023-02-28T06:55:57;20.40;72.10
63313;DHT22;49442;45.640;13.812;2023-02-28T06:58:23;20.50;72.60
63313;DHT22;49442;45.640;13.812;2023-02-28T07:00:51;20.50;72.70
63313;DHT22;49442;45.640;13.812;2023-02-28T07:03:17;20.50;72.90
63313;DHT22;49442;45.640;13.812;2023-02-28T07:05:44;20.50;73.00
63313;DHT22;49442;45.640;13.812;2023-02-28T07:08:09;20.60;73.00
63313;DHT22;49442;45.640;13.812;2023-02-28T07:10:37;20.60;73.00
63313;DHT22;49442;45.640;13.812;2023-02-28T07:13:04;20.60;72.90
63313;DHT22;49442;45.640;13.812;2023-02-28T07:15:30;20.60;72.80
63313;DHT22;49442;45.640;13.812;2023-02-28T07:17:56;20.60;72.60
63313;DHT22;49442;45.640;13.812;2023-02-28T07:20:22;20.60;72.10
63313;DHT22;49442;45.640;13.812;2023-02-28T07:22:49;20.60;72.10
63313;DHT22;49442;45.640;13.812;2023-02-28T07:25:21;20.70;72.00
63313;DHT22;49442;45.640;13.812;2023-02-28T07:27:47;20.70;71.90
63313;DHT22;49442;45.640;13.812;2023-02-28T07:30:13;20.70;71.70
63313;DHT22;49442;45.640;13.812;2023-02-28T07:32:38;20.70;71.30
63313;DHT22;49442;45.640;13.812;2023-02-28T07:35:04;20.70;71.00
63313;DHT22;49442;45.640;13.812;2023-02-28T07:37:30;20.70;70.80
63313;DHT22;49442;45.640;13.812;2023-02-28T07:39:57;20.70;70.90
63313;DHT22;49442;45.640;13.812;2023-02-28T07:42:22;20.70;70.90
63313;DHT22;49442;45.640;13.812;2023-02-28T07:44:48;20.70;70.70
63313;DHT22;49442;45.640;13.812;2023-02-28T07:47:14;20.70;70.80
63313;DHT22;49442;45.640;13.812;2023-02-28T07:49:39;20.70;70.80
63313;DHT22;49442;45.640;13.812;2023-02-28T07:52:06;20.70;70.80
63313;DHT22;49442;45.640;13.812;2023-02-28T07:54:33;20.70;70.70
63313;DHT22;49442;45.640;13.812;2023-02-28T07:56:59;20.70;70.60
63313;DHT22;49442;45.640;13.812;2023-02-28T07:59:24;20.70;70.40
63313;DHT22;49442;45.640;13.812;2023-02-28T08:01:50;20.60;70.40
63313;DHT22;49442;45.640;13.812;2023-02-28T08:04:17;20.60;70.50
63313;DHT22;49442;45.640;13.812;2023-02-28T08:06:43;20.60;70.50
63313;DHT22;49442;45.640;13.812;2023-02-28T08:09:09;20.70;70.50
63313;DHT22;49442;45.640;13.812;2023-02-28T08:11:34;20.60;70.40
63313;DHT22;49442;45.640;13.812;2023-02-28T08:14:00;20.60;70.40
63313;DHT22;49442;45.640;13.812;2023-02-28T08:16:26;20.60;70.40
63313;DHT22;49442;45.640;13.812;2023-02-28T08:18:52;20.60;70.40
63313;DHT22;49442;45.640;13.812;2023-02-28T08:21:19;20.60;70.40
63313;DHT22;49442;45.640;13.812;2023-02-28T08:23:47;20.60;70.40
63313;DHT22;49442;45.640;13.812;2023-02-28T08:26:14;20.60;70.30
63313;DHT22;49442;45.640;13.812;2023-02-28T08:28:40;20.60;70.50
63313;DHT22;49442;45.640;13.812;2023-02-28T08:31:10;20.60;70.40
63313;DHT22;49442;45.640;13.812;2023-02-28T08:33:37;20.60;70.50
63313;DHT22;49442;45.640;13.812;2023-02-28T08:36:04;20.60;70.30
63313;DHT22;49442;45.640;13.812;2023-02-28T08:38:30;20.60;70.30
63313;DHT22;49442;45.640;13.812;2023-02-28T08:41:05;20.60;70.30
63313;DHT22;49442;45.640;13.812;2023-02-28T08:43:35;20.60;70.10
63313;DHT22;49442;45.640;13.812;2023-02-28T08:46:01;20.60;70.30
63313;DHT22;49442;45.640;13.812;2023-02-28T08:48:29;20.50;70.10
63313;DHT22;49442;45.640;13.812;2023-02-28T08:53:22;20.50;70.10
63313;DHT22;49442;45.640;13.812;2023-02-28T08:55:54;20.50;70.40
63313;DHT22;49442;45.640;13.812;2023-02-28T08:58:20;20.50;70.00
63313;DHT22;49442;45.640;13.812;2023-02-28T09:00:45;20.40;69.10
63313;DHT22;49442;45.640;13.812;2023-02-28T09:03:11;20.30;70.20
63313;DHT22;49442;45.640;13.812;2023-02-28T09:05:37;20.20;70.40
63313;DHT22;49442;45.640;13.812;2023-02-28T09:08:02;20.20;70.10
63313;DHT22;49442;45.640;13.812;2023-02-28T09:10:28;20.20;69.90
63313;DHT22;49442;45.640;13.812;2023-02-28T09:12:54;20.20;70.20
63313;DHT22;49442;45.640;13.812;2023-02-28T09:15:19;20.30;70.10
63313;DHT22;49442;45.640;13.812;2023-02-28T09:17:45;20.30;69.70
63313;DHT22;49442;45.640;13.812;2023-02-28T09:20:11;20.30;69.60
63313;DHT22;49442;45.640;13.812;2023-02-28T09:22:37;20.30;69.60
63313;DHT22;49442;45.640;13.812;2023-02-28T09:25:03;20.30;69.60
63313;DHT22;49442;45.640;13.812;2023-02-28T09:27:28;20.30;69.30
63313;DHT22;49442;45.640;13.812;2023-02-28T09:29:54;20.30;69.50
63313;DHT22;49442;45.640;13.812;2023-02-28T09:32:19;20.30;70.00
63313;DHT22;49442;45.640;13.812;2023-02-28T09:34:45;20.30;70.10
63313;DHT22;49442;45.640;13.812;2023-02-28T09:37:11;20.30;69.80
63313;DHT22;49442;45.640;13.812;2023-02-28T09:39:36;20.40;69.90
63313;DHT22;49442;45.640;13.812;2023-02-28T09:42:03;20.40;70.20
63313;DHT22;49442;45.640;13.812;2023-02-28T09:44:37;20.40;69.90
63313;DHT22;49442;45.640;13.812;2023-02-28T09:50:03;20.40;69.40
63313;DHT22;49442;45.640;13.812;2023-02-28T09:52:32;20.40;69.40
63313;DHT22;49442;45.640;13.812;2023-02-28T09:55:22;20.40;69.40
63313;DHT22;49442;45.640;13.812;2023-02-28T09:57:54;20.40;69.40
63313;DHT22;49442;45.640;13.812;2023-02-28T10:00:35;20.40;69.40
63313;DHT22;49442;45.640;13.812;2023-02-28T10:03:28;20.40;69.10
63313;DHT22;49442;45.640;13.812;2023-02-28T10:08:38;20.40;69.20
63313;DHT22;49442;45.640;13.812;2023-02-28T10:11:10;20.40;69.10
63313;DHT22;49442;45.640;13.812;2023-02-28T10:19:06;20.40;69.10
63313;DHT22;49442;45.640;13.812;2023-02-28T10:21:46;20.40;69.20
63313;DHT22;49442;45.640;13.812;2023-02-28T10:24:35;20.40;69.00
63313;DHT22;49442;45.640;13.812;2023-02-28T10:27:24;20.40;69.30
63313;DHT22;49442;45.640;13.812;2023-02-28T10:29:55;20.40;69.20
63313;DHT22;49442;45.640;13.812;2023-02-28T10:32:25;20.50;69.40
63313;DHT22;49442;45.640;13.812;2023-02-28T10:35:17;20.40;70.00
63313;DHT22;49442;45.640;13.812;2023-02-28T10:37:46;20.40;69.10
63313;DHT22;49442;45.640;13.812;2023-02-28T10:42:56;20.40;69.20
63313;DHT22;49442;45.640;13.812;2023-02-28T10:45:22;20.40;69.30
63313;DHT22;49442;45.640;13.812;2023-02-28T10:48:06;20.40;69.40
63313;DHT22;49442;45.640;13.812;2023-02-28T10:53:28;20.40;69.30
63313;DHT22;49442;45.640;13.812;2023-02-28T11:01:44;20.40;68.90
63313;DHT22;49442;45.640;13.812;2023-02-28T11:06:45;20.40;69.00
63313;DHT22;49442;45.640;13.812;2023-02-28T11:09:39;20.40;69.10
63313;DHT22;49442;45.640;13.812;2023-02-28T11:12:08;20.40;69.20
63313;DHT22;49442;45.640;13.812;2023-02-28T11:14:53;20.40;69.20
63313;DHT22;49442;45.640;13.812;2023-02-28T11:17:22;20.40;69.20
63313;DHT22;49442;45.640;13.812;2023-02-28T11:19:52;20.40;69.40
63313;DHT22;49442;45.640;13.812;2023-02-28T11:22:21;20.40;69.40
63313;DHT22;49442;45.640;13.812;2023-02-28T11:24:51;20.40;69.30
63313;DHT22;49442;45.640;13.812;2023-02-28T11:29:58;20.30;69.80
63313;DHT22;49442;45.640;13.812;2023-02-28T11:32:25;20.30;70.30
63313;DHT22;49442;45.640;13.812;2023-02-28T11:35:10;20.30;70.70
63313;DHT22;49442;45.640;13.812;2023-02-28T11:37:39;20.40;71.80
63313;DHT22;49442;45.640;13.812;2023-02-28T11:40:16;20.40;72.50
63313;DHT22;49442;45.640;13.812;2023-02-28T11:43:06;20.40;73.30
63313;DHT22;49442;45.640;13.812;2023-02-28T11:48:39;20.50;74.60
63313;DHT22;49442;45.640;13.812;2023-02-28T11:51:16;20.50;76.00
63313;DHT22;49442;45.640;13.812;2023-02-28T11:56:47;20.70;78.60
63313;DHT22;49442;45.640;13.812;2023-02-28T12:08:01;20.90;83.50
63313;DHT22;49442;45.640;13.812;2023-02-28T12:10:30;20.90;85.20
63313;DHT22;49442;45.640;13.812;2023-02-28T12:15:48;21.00;87.60
63313;DHT22;49442;45.640;13.812;2023-02-28T12:20:53;21.10;86.60
63313;DHT22;49442;45.640;13.812;2023-02-28T12:26:07;21.20;86.10
63313;DHT22;49442;45.640;13.812;2023-02-28T12:28:43;21.20;84.90
63313;DHT22;49442;45.640;13.812;2023-02-28T13:21:30;21.30;80.70
63313;DHT22;49442;45.640;13.812;2023-02-28T13:24:01;21.20;80.00
63313;DHT22;49442;45.640;13.812;2023-02-28T13:34:32;21.20;78.70
63313;DHT22;49442;45.640;13.812;2023-02-28T13:39:53;21.20;78.30
63313;DHT22;49442;45.640;13.812;2023-02-28T13:47:48;21.20;77.50
63313;DHT22;49442;45.640;13.812;2023-02-28T13:53:20;21.10;77.50
63313;DHT22;49442;45.640;13.812;2023-02-28T14:06:57;21.10;76.20
63313;DHT22;49442;45.640;13.812;2023-02-28T14:09:33;21.10;76.10
63313;DHT22;49442;45.640;13.812;2023-02-28T14:15:23;21.10;76.30
63313;DHT22;49442;45.640;13.812;2023-02-28T14:17:54;21.00;75.90
63313;DHT22;49442;45.640;13.812;2023-02-28T14:20:21;21.00;75.90
63313;DHT22;49442;45.640;13.812;2023-02-28T14:25:37;21.00;76.10
63313;DHT22;49442;45.640;13.812;2023-02-28T14:31:13;21.00;75.80
63313;DHT22;49442;45.640;13.812;2023-02-28T14:36:40;21.00;76.10
63313;DHT22;49442;45.640;13.812;2023-02-28T14:39:19;20.90;75.80
63313;DHT22;49442;45.640;13.812;2023-02-28T14:41:46;20.90;76.00
63313;DHT22;49442;45.640;13.812;2023-02-28T14:44:25;20.90;76.00
63313;DHT22;49442;45.640;13.812;2023-02-28T14:46:57;20.90;75.70
63313;DHT22;49442;45.640;13.812;2023-02-28T14:52:21;20.90;75.60
63313;DHT22;49442;45.640;13.812;2023-02-28T14:54:59;20.90;75.60
63313;DHT22;49442;45.640;13.812;2023-02-28T14:57:29;20.80;76.00
63313;DHT22;49442;45.640;13.812;2023-02-28T15:02:36;20.80;74.80
63313;DHT22;49442;45.640;13.812;2023-02-28T15:07:38;20.80;74.80
63313;DHT22;49442;45.640;13.812;2023-02-28T15:12:36;20.80;74.60
63313;DHT22;49442;45.640;13.812;2023-02-28T15:15:02;20.80;75.00
63313;DHT22;49442;45.640;13.812;2023-02-28T15:17:28;20.80;75.10
63313;DHT22;49442;45.640;13.812;2023-02-28T15:19:55;20.80;75.00
63313;DHT22;49442;45.640;13.812;2023-02-28T15:22:28;20.80;74.50
63313;DHT22;49442;45.640;13.812;2023-02-28T15:24:55;20.70;74.60
63313;DHT22;49442;45.640;13.812;2023-02-28T15:27:28;20.70;74.70
63313;DHT22;49442;45.640;13.812;2023-02-28T15:29:58;20.70;74.60
63313;DHT22;49442;45.640;13.812;2023-02-28T15:32:32;20.70;74.60
63313;DHT22;49442;45.640;13.812;2023-02-28T15:34:59;20.70;74.50
63313;DHT22;49442;45.640;13.812;2023-02-28T15:43:32;20.70;74.50
63313;DHT22;49442;45.640;13.812;2023-02-28T15:46:07;20.70;74.50
63313;DHT22;49442;45.640;13.812;2023-02-28T15:48:38;20.70;74.30
63313;DHT22;49442;45.640;13.812;2023-02-28T15:51:15;20.70;74.30
63313;DHT22;49442;45.640;13.812;2023-02-28T15:56:21;20.70;74.30
63313;DHT22;49442;45.640;13.812;2023-02-28T15:58:48;20.60;74.30
63313;DHT22;49442;45.640;13.812;2023-02-28T16:01:40;20.60;74.60
63313;DHT22;49442;45.640;13.812;2023-02-28T16:04:17;20.60;74.60
63313;DHT22;49442;45.640;13.812;2023-02-28T16:07:11;20.60;74.70
63313;DHT22;49442;45.640;13.812;2023-02-28T16:09:37;20.60;74.60
63313;DHT22;49442;45.640;13.812;2023-02-28T16:12:03;20.60;74.70
63313;DHT22;49442;45.640;13.812;2023-02-28T16:14:31;20.60;74.60
63313;DHT22;49442;45.640;13.812;2023-02-28T16:17:06;20.60;74.70
63313;DHT22;49442;45.640;13.812;2023-02-28T16:19:34;20.50;74.70
63313;DHT22;49442;45.640;13.812;2023-02-28T16:22:00;20.50;74.90
63313;DHT22;49442;45.640;13.812;2023-02-28T16:24:26;20.50;75.00
63313;DHT22;49442;45.640;13.812;2023-02-28T16:26:53;20.50;75.20
63313;DHT22;49442;45.640;13.812;2023-02-28T16:29:32;20.50;75.50
63313;DHT22;49442;45.640;13.812;2023-02-28T16:32:00;20.50;76.60
63313;DHT22;49442;45.640;13.812;2023-02-28T16:34:26;20.50;76.00
63313;DHT22;49442;45.640;13.812;2023-02-28T16:36:52;20.50;76.40
63313;DHT22;49442;45.640;13.812;2023-02-28T16:39:18;20.50;76.90
63313;DHT22;49442;45.640;13.812;2023-02-28T16:41:47;20.50;77.70
63313;DHT22;49442;45.640;13.812;2023-02-28T16:44:25;20.50;78.10
63313;DHT22;49442;45.640;13.812;2023-02-28T16:46:52;20.50;79.50
63313;DHT22;49442;45.640;13.812;2023-02-28T16:49:18;20.50;79.90
63313;DHT22;49442;45.640;13.812;2023-02-28T16:51:43;20.50;80.20
63313;DHT22;49442;45.640;13.812;2023-02-28T16:54:09;20.50;80.40
63313;DHT22;49442;45.640;13.812;2023-02-28T16:56:35;20.40;80.40
63313;DHT22;49442;45.640;13.812;2023-02-28T16:59:01;20.40;80.50
63313;DHT22;49442;45.640;13.812;2023-02-28T17:01:28;20.40;80.60
63313;DHT22;49442;45.640;13.812;2023-02-28T17:03:54;20.40;80.20
63313;DHT22;49442;45.640;13.812;2023-02-28T17:06:25;20.40;80.40
63313;DHT22;49442;45.640;13.812;2023-02-28T17:08:53;20.40;80.60
63313;DHT22;49442;45.640;13.812;2023-02-28T17:11:20;20.40;81.00
63313;DHT22;49442;45.640;13.812;2023-02-28T17:13:46;20.40;81.50
63313;DHT22;49442;45.640;13.812;2023-02-28T17:16:20;20.40;81.10
63313;DHT22;49442;45.640;13.812;2023-02-28T17:18:47;20.40;81.30
63313;DHT22;49442;45.640;13.812;2023-02-28T17:21:15;20.50;81.30
63313;DHT22;49442;45.640;13.812;2023-02-28T17:23:40;20.40;81.40
63313;DHT22;49442;45.640;13.812;2023-02-28T17:26:06;20.40;81.30
63313;DHT22;49442;45.640;13.812;2023-02-28T17:28:32;20.40;82.20
63313;DHT22;49442;45.640;13.812;2023-02-28T17:30:58;20.40;81.80
63313;DHT22;49442;45.640;13.812;2023-02-28T17:33:23;20.40;81.90
63313;DHT22;49442;45.640;13.812;2023-02-28T17:35:49;20.40;81.40
63313;DHT22;49442;45.640;13.812;2023-02-28T17:38:18;20.40;80.80
63313;DHT22;49442;45.640;13.812;2023-02-28T17:40:43;20.30;80.70
63313;DHT22;49442;45.640;13.812;2023-02-28T17:43:09;20.30;80.50
63313;DHT22;49442;45.640;13.812;2023-02-28T17:45:35;20.40;80.40
63313;DHT22;49442;45.640;13.812;2023-02-28T17:48:01;20.40;80.40
63313;DHT22;49442;45.640;13.812;2023-02-28T17:50:27;20.40;80.10
63313;DHT22;49442;45.640;13.812;2023-02-28T17:52:53;20.40;80.00
63313;DHT22;49442;45.640;13.812;2023-02-28T17:55:18;20.40;79.90
63313;DHT22;49442;45.640;13.812;2023-02-28T17:57:44;20.50;79.80
63313;DHT22;49442;45.640;13.812;2023-02-28T18:00:12;20.50;79.50
63313;DHT22;49442;45.640;13.812;2023-02-28T18:02:39;20.50;79.30
63313;DHT22;49442;45.640;13.812;2023-02-28T18:05:05;20.50;79.40
63313;DHT22;49442;45.640;13.812;2023-02-28T18:07:31;20.60;80.10
63313;DHT22;49442;45.640;13.812;2023-02-28T18:09:56;20.60;79.10
63313;DHT22;49442;45.640;13.812;2023-02-28T18:12:22;20.70;79.30
63313;DHT22;49442;45.640;13.812;2023-02-28T18:14:48;20.70;79.20
63313;DHT22;49442;45.640;13.812;2023-02-28T18:17:13;20.70;79.30
63313;DHT22;49442;45.640;13.812;2023-02-28T18:19:39;20.70;79.00
63313;DHT22;49442;45.640;13.812;2023-02-28T18:22:05;20.70;78.90
63313;DHT22;49442;45.640;13.812;2023-02-28T18:24:34;20.80;78.90
63313;DHT22;49442;45.640;13.812;2023-02-28T18:27:00;20.80;78.80
63313;DHT22;49442;45.640;13.812;2023-02-28T18:29:27;20.80;78.40
63313;DHT22;49442;45.640;13.812;2023-02-28T18:31:54;20.80;78.10
63313;DHT22;49442;45.640;13.812;2023-02-28T18:34:20;20.80;77.60
63313;DHT22;49442;45.640;13.812;2023-02-28T18:36:47;20.80;77.20
63313;DHT22;49442;45.640;13.812;2023-02-28T18:39:14;20.80;77.00
63313;DHT22;49442;45.640;13.812;2023-02-28T18:41:40;20.80;76.90
63313;DHT22;49442;45.640;13.812;2023-02-28T18:44:06;20.80;76.80
63313;DHT22;49442;45.640;13.812;2023-02-28T18:46:32;20.90;76.70
63313;DHT22;49442;45.640;13.812;2023-02-28T18:48:57;20.90;76.60
63313;DHT22;49442;45.640;13.812;2023-02-28T18:51:25;20.90;76.40
63313;DHT22;49442;45.640;13.812;2023-02-28T18:53:52;20.90;76.40
63313;DHT22;49442;45.640;13.812;2023-02-28T18:56:19;20.90;76.20
63313;DHT22;49442;45.640;13.812;2023-02-28T18:58:46;20.90;76.20
63313;DHT22;49442;45.640;13.812;2023-02-28T19:01:18;21.00;76.20
63313;DHT22;49442;45.640;13.812;2023-02-28T19:03:45;21.00;76.10
63313;DHT22;49442;45.640;13.812;2023-02-28T19:06:11;21.00;76.00
63313;DHT22;49442;45.640;13.812;2023-02-28T19:08:37;21.00;76.00
63313;DHT22;49442;45.640;13.812;2023-02-28T19:11:16;21.00;76.50
63313;DHT22;49442;45.640;13.812;2023-02-28T19:13:42;21.10;77.90
63313;DHT22;49442;45.640;13.812;2023-02-28T19:16:10;21.10;78.30
63313;DHT22;49442;45.640;13.812;2023-02-28T19:18:36;21.10;78.40
63313;DHT22;49442;45.640;13.812;2023-02-28T19:21:02;21.20;78.60
63313;DHT22;49442;45.640;13.812;2023-02-28T19:23:31;21.20;78.60
63313;DHT22;49442;45.640;13.812;2023-02-28T19:25:56;21.20;78.50
63313;DHT22;49442;45.640;13.812;2023-02-28T19:28:22;21.20;78.50
63313;DHT22;49442;45.640;13.812;2023-02-28T19:30:49;21.20;78.50
63313;DHT22;49442;45.640;13.812;2023-02-28T19:33:18;21.20;78.70